sensor_id;sensor_type;location;lat;lon;timestamp;P1;durP1;ratioP1;P2;durP2;ratioP2
16133;SDS011;8172;45.018;5.972;2022-08-21T00:01:24;2.10;;;1.90;;
16133;SDS011;8172;45.018;5.972;2022-08-21T00:06:34;4.13;;;2.03;;
16133;SDS011;8172;45.018;5.972;2022-08-21T00:11:41;2.63;;;1.77;;
16133;SDS011;8172;45.018;5.972;2022-08-21T00:16:49;2.20;;;2.00;;
16133;SDS011;8172;45.018;5.972;2022-08-21T00:21:57;1.67;;;1.57;;
16133;SDS011;8172;45.018;5.972;2022-08-21T00:27:04;2.70;;;1.97;;
16133;SDS011;8172;45.018;5.972;2022-08-21T00:32:11;4.37;;;1.70;;
16133;SDS011;8172;45.018;5.972;2022-08-21T00:37:18;3.60;;;1.90;;
16133;SDS011;8172;45.018;5.972;2022-08-21T00:42:26;2.13;;;1.80;;
16133;SDS011;8172;45.018;5.972;2022-08-21T00:47:35;2.13;;;1.80;;
16133;SDS011;8172;45.018;5.972;2022-08-21T00:52:43;3.03;;;1.83;;
16133;SDS011;8172;45.018;5.972;2022-08-21T00:57:53;3.33;;;1.90;;
16133;SDS011;8172;45.018;5.972;2022-08-21T01:03:04;1.70;;;1.60;;
16133;SDS011;8172;45.018;5.972;2022-08-21T01:08:13;1.77;;;1.67;;
16133;SDS011;8172;45.018;5.972;2022-08-21T01:13:22;3.23;;;1.90;;
16133;SDS011;8172;45.018;5.972;2022-08-21T01:18:30;1.97;;;1.77;;
16133;SDS011;8172;45.018;5.972;2022-08-21T01:23:38;2.23;;;1.90;;
16133;SDS011;8172;45.018;5.972;2022-08-21T01:33:56;2.30;;;1.90;;
16133;SDS011;8172;45.018;5.972;2022-08-21T01:39:04;2.07;;;1.87;;
16133;SDS011;8172;45.018;5.972;2022-08-21T01:44:11;2.00;;;1.80;;
16133;SDS011;8172;45.018;5.972;2022-08-21T01:49:18;2.40;;;2.03;;
16133;SDS011;8172;45.018;5.972;2022-08-21T01:54:26;4.13;;;1.83;;
16133;SDS011;8172;45.018;5.972;2022-08-21T01:59:33;2.10;;;1.90;;
16133;SDS011;8172;45.018;5.972;2022-08-21T02:04:40;2.17;;;1.90;;
16133;SDS011;8172;45.018;5.972;2022-08-21T02:09:48;2.20;;;2.00;;
16133;SDS011;8172;45.018;5.972;2022-08-21T02:14:57;2.30;;;2.10;;
16133;SDS011;8172;45.018;5.972;2022-08-21T02:20:04;4.80;;;2.07;;
16133;SDS011;8172;45.018;5.972;2022-08-21T02:25:11;3.10;;;1.90;;
16133;SDS011;8172;45.018;5.972;2022-08-21T02:30:22;2.30;;;2.10;;
16133;SDS011;8172;45.018;5.972;2022-08-21T02:35:29;2.57;;;1.60;;
16133;SDS011;8172;45.018;5.972;2022-08-21T02:40:37;2.20;;;2.00;;
16133;SDS011;8172;45.018;5.972;2022-08-21T02:45:48;1.97;;;1.77;;
16133;SDS011;8172;45.018;5.972;2022-08-21T02:56:05;2.07;;;1.87;;
16133;SDS011;8172;45.018;5.972;2022-08-21T03:01:14;2.50;;;2.30;;
16133;SDS011;8172;45.018;5.972;2022-08-21T03:06:21;2.90;;;1.90;;
16133;SDS011;8172;45.018;5.972;2022-08-21T03:11:30;2.33;;;2.13;;
16133;SDS011;8172;45.018;5.972;2022-08-21T03:16:36;2.30;;;2.10;;
16133;SDS011;8172;45.018;5.972;2022-08-21T03:21:43;3.50;;;1.97;;
16133;SDS011;8172;45.018;5.972;2022-08-21T03:26:51;3.23;;;2.40;;
16133;SDS011;8172;45.018;5.972;2022-08-21T03:31:58;2.40;;;2.20;;
16133;SDS011;8172;45.018;5.972;2022-08-21T03:37:06;2.20;;;2.00;;
16133;SDS011;8172;45.018;5.972;2022-08-21T03:42:16;2.60;;;2.20;;
16133;SDS011;8172;45.018;5.972;2022-08-21T03:47:23;2.93;;;2.33;;
16133;SDS011;8172;45.018;5.972;2022-08-21T03:52:30;3.40;;;2.60;;
16133;SDS011;8172;45.018;5.972;2022-08-21T03:57:37;3.17;;;2.50;;
16133;SDS011;8172;45.018;5.972;2022-08-21T04:02:44;3.20;;;2.60;;
16133;SDS011;8172;45.018;5.972;2022-08-21T04:07:51;2.97;;;2.67;;
16133;SDS011;8172;45.018;5.972;2022-08-21T04:12:57;2.83;;;2.63;;
16133;SDS011;8172;45.018;5.972;2022-08-21T04:18:04;3.10;;;2.80;;
16133;SDS011;8172;45.018;5.972;2022-08-21T04:23:11;2.93;;;2.70;;
16133;SDS011;8172;45.018;5.972;2022-08-21T04:28:20;2.80;;;2.60;;
16133;SDS011;8172;45.018;5.972;2022-08-21T04:33:30;3.63;;;2.40;;
16133;SDS011;8172;45.018;5.972;2022-08-21T04:38:37;3.70;;;3.10;;
16133;SDS011;8172;45.018;5.972;2022-08-21T04:43:45;3.20;;;2.90;;
16133;SDS011;8172;45.018;5.972;2022-08-21T04:48:52;4.60;;;4.20;;
16133;SDS011;8172;45.018;5.972;2022-08-21T04:59:06;4.27;;;3.87;;
16133;SDS011;8172;45.018;5.972;2022-08-21T05:04:16;3.67;;;3.37;;
16133;SDS011;8172;45.018;5.972;2022-08-21T05:09:25;3.30;;;3.00;;
16133;SDS011;8172;45.018;5.972;2022-08-21T05:14:35;4.27;;;3.20;;
16133;SDS011;8172;45.018;5.972;2022-08-21T05:19:42;5.40;;;4.60;;
16133;SDS011;8172;45.018;5.972;2022-08-21T05:24:49;5.20;;;4.70;;
16133;SDS011;8172;45.018;5.972;2022-08-21T05:29:57;5.10;;;4.60;;
16133;SDS011;8172;45.018;5.972;2022-08-21T05:35:05;3.90;;;3.60;;
16133;SDS011;8172;45.018;5.972;2022-08-21T05:40:13;5.40;;;4.00;;
16133;SDS011;8172;45.018;5.972;2022-08-21T05:45:22;3.97;;;3.57;;
16133;SDS011;8172;45.018;5.972;2022-08-21T05:50:33;3.53;;;3.20;;
16133;SDS011;8172;45.018;5.972;2022-08-21T05:55:40;5.63;;;3.83;;
16133;SDS011;8172;45.018;5.972;2022-08-21T06:00:53;5.13;;;4.63;;
16133;SDS011;8172;45.018;5.972;2022-08-21T06:06:01;5.43;;;4.30;;
16133;SDS011;8172;45.018;5.972;2022-08-21T06:11:08;5.73;;;4.97;;
16133;SDS011;8172;45.018;5.972;2022-08-21T06:16:16;5.17;;;4.67;;
16133;SDS011;8172;45.018;5.972;2022-08-21T06:21:23;6.00;;;4.10;;
16133;SDS011;8172;45.018;5.972;2022-08-21T06:26:30;4.20;;;3.80;;
16133;SDS011;8172;45.018;5.972;2022-08-21T06:31:39;4.53;;;4.13;;
16133;SDS011;8172;45.018;5.972;2022-08-21T06:36:46;4.70;;;4.30;;
16133;SDS011;8172;45.018;5.972;2022-08-21T06:41:53;4.30;;;3.30;;
16133;SDS011;8172;45.018;5.972;2022-08-21T06:47:03;4.03;;;3.63;;
16133;SDS011;8172;45.018;5.972;2022-08-21T06:52:11;3.67;;;3.37;;
16133;SDS011;8172;45.018;5.972;2022-08-21T06:57:19;3.70;;;2.90;;
16133;SDS011;8172;45.018;5.972;2022-08-21T07:02:26;4.13;;;2.70;;
16133;SDS011;8172;45.018;5.972;2022-08-21T07:07:34;3.00;;;2.80;;
16133;SDS011;8172;45.018;5.972;2022-08-21T07:12:41;2.77;;;2.57;;
16133;SDS011;8172;45.018;5.972;2022-08-21T07:17:49;2.50;;;2.30;;
16133;SDS011;8172;45.018;5.972;2022-08-21T07:22:59;2.53;;;2.33;;
16133;SDS011;8172;45.018;5.972;2022-08-21T07:28:08;2.10;;;1.90;;
16133;SDS011;8172;45.018;5.972;2022-08-21T07:33:16;2.10;;;1.90;;
16133;SDS011;8172;45.018;5.972;2022-08-21T07:38:23;2.00;;;1.80;;
16133;SDS011;8172;45.018;5.972;2022-08-21T07:43:31;2.97;;;1.90;;
16133;SDS011;8172;45.018;5.972;2022-08-21T07:48:38;2.37;;;1.97;;
16133;SDS011;8172;45.018;5.972;2022-08-21T07:53:49;2.37;;;2.03;;
16133;SDS011;8172;45.018;5.972;2022-08-21T07:58:56;2.83;;;2.20;;
16133;SDS011;8172;45.018;5.972;2022-08-21T08:04:03;2.30;;;2.10;;
16133;SDS011;8172;45.018;5.972;2022-08-21T08:09:10;2.53;;;2.30;;
16133;SDS011;8172;45.018;5.972;2022-08-21T08:14:17;2.40;;;2.20;;
16133;SDS011;8172;45.018;5.972;2022-08-21T08:19:25;2.50;;;2.30;;
16133;SDS011;8172;45.018;5.972;2022-08-21T08:24:32;2.60;;;2.40;;
16133;SDS011;8172;45.018;5.972;2022-08-21T08:29:42;2.63;;;2.43;;
16133;SDS011;8172;45.018;5.972;2022-08-21T08:34:50;2.40;;;2.20;;
16133;SDS011;8172;45.018;5.972;2022-08-21T08:39:57;6.27;;;2.33;;
16133;SDS011;8172;45.018;5.972;2022-08-21T08:55:28;4.07;;;2.10;;
16133;SDS011;8172;45.018;5.972;2022-08-21T09:00:35;2.40;;;2.20;;
16133;SDS011;8172;45.018;5.972;2022-08-21T09:05:45;2.30;;;1.90;;
16133;SDS011;8172;45.018;5.972;2022-08-21T09:16:05;3.43;;;2.10;;
16133;SDS011;8172;45.018;5.972;2022-08-21T09:21:17;2.00;;;1.90;;
16133;SDS011;8172;45.018;5.972;2022-08-21T09:26:25;1.90;;;1.70;;
16133;SDS011;8172;45.018;5.972;2022-08-21T09:31:34;5.23;;;2.40;;
16133;SDS011;8172;45.018;5.972;2022-08-21T09:36:44;3.57;;;2.23;;
16133;SDS011;8172;45.018;5.972;2022-08-21T09:41:56;2.53;;;2.33;;
16133;SDS011;8172;45.018;5.972;2022-08-21T09:47:03;3.07;;;2.37;;
16133;SDS011;8172;45.018;5.972;2022-08-21T09:57:28;2.50;;;2.30;;
16133;SDS011;8172;45.018;5.972;2022-08-21T10:02:34;2.30;;;2.10;;
16133;SDS011;8172;45.018;5.972;2022-08-21T10:07:41;2.57;;;2.37;;
16133;SDS011;8172;45.018;5.972;2022-08-21T10:28:17;2.03;;;1.93;;
16133;SDS011;8172;45.018;5.972;2022-08-21T10:33:30;3.47;;;2.30;;
16133;SDS011;8172;45.018;5.972;2022-08-21T10:43:51;1.97;;;1.87;;
16133;SDS011;8172;45.018;5.972;2022-08-21T10:48:57;2.50;;;2.30;;
16133;SDS011;8172;45.018;5.972;2022-08-21T11:04:25;2.63;;;2.10;;
16133;SDS011;8172;45.018;5.972;2022-08-21T11:09:35;2.37;;;2.17;;
16133;SDS011;8172;45.018;5.972;2022-08-21T11:14:49;2.23;;;2.13;;
16133;SDS011;8172;45.018;5.972;2022-08-21T11:19:57;2.20;;;2.00;;
16133;SDS011;8172;45.018;5.972;2022-08-21T11:25:09;2.73;;;2.50;;
16133;SDS011;8172;45.018;5.972;2022-08-21T11:30:14;2.20;;;2.00;;
16133;SDS011;8172;45.018;5.972;2022-08-21T11:45:50;2.17;;;2.00;;
16133;SDS011;8172;45.018;5.972;2022-08-21T11:50:52;2.37;;;2.17;;
16133;SDS011;8172;45.018;5.972;2022-08-21T11:56:04;2.43;;;1.90;;
16133;SDS011;8172;45.018;5.972;2022-08-21T12:01:10;2.83;;;2.10;;
16133;SDS011;8172;45.018;5.972;2022-08-21T12:06:28;2.30;;;2.10;;
16133;SDS011;8172;45.018;5.972;2022-08-21T12:11:29;2.73;;;2.10;;
16133;SDS011;8172;45.018;5.972;2022-08-21T12:16:38;2.43;;;2.20;;
16133;SDS011;8172;45.018;5.972;2022-08-21T12:21:49;2.87;;;2.07;;
16133;SDS011;8172;45.018;5.972;2022-08-21T12:26:58;2.10;;;1.97;;
16133;SDS011;8172;45.018;5.972;2022-08-21T12:37:18;3.57;;;2.30;;
16133;SDS011;8172;45.018;5.972;2022-08-21T12:42:32;4.80;;;2.30;;
16133;SDS011;8172;45.018;5.972;2022-08-21T12:47:43;2.43;;;2.23;;
16133;SDS011;8172;45.018;5.972;2022-08-21T12:57:56;2.30;;;2.10;;
16133;SDS011;8172;45.018;5.972;2022-08-21T13:03:03;2.40;;;2.20;;
16133;SDS011;8172;45.018;5.972;2022-08-21T13:08:12;2.20;;;2.00;;
16133;SDS011;8172;45.018;5.972;2022-08-21T13:13:21;2.67;;;2.03;;
16133;SDS011;8172;45.018;5.972;2022-08-21T13:18:33;5.37;;;2.30;;
16133;SDS011;8172;45.018;5.972;2022-08-21T13:23:42;3.80;;;2.10;;
16133;SDS011;8172;45.018;5.972;2022-08-21T13:28:51;2.20;;;2.07;;
16133;SDS011;8172;45.018;5.972;2022-08-21T13:33:58;2.30;;;2.10;;
16133;SDS011;8172;45.018;5.972;2022-08-21T13:39:07;2.23;;;2.03;;
16133;SDS011;8172;45.018;5.972;2022-08-21T13:54:36;2.77;;;1.97;;
16133;SDS011;8172;45.018;5.972;2022-08-21T13:59:44;2.80;;;1.97;;
16133;SDS011;8172;45.018;5.972;2022-08-21T14:04:55;2.07;;;1.90;;
16133;SDS011;8172;45.018;5.972;2022-08-21T14:10:02;2.90;;;1.90;;
16133;SDS011;8172;45.018;5.972;2022-08-21T14:15:12;2.00;;;1.80;;
16133;SDS011;8172;45.018;5.972;2022-08-21T14:25:37;2.10;;;1.90;;
16133;SDS011;8172;45.018;5.972;2022-08-21T14:30:42;1.90;;;1.80;;
16133;SDS011;8172;45.018;5.972;2022-08-21T14:35:51;2.10;;;2.00;;
16133;SDS011;8172;45.018;5.972;2022-08-21T14:40:59;2.80;;;2.13;;
16133;SDS011;8172;45.018;5.972;2022-08-21T14:46:09;2.20;;;1.70;;
16133;SDS011;8172;45.018;5.972;2022-08-21T14:51:18;2.03;;;1.77;;
16133;SDS011;8172;45.018;5.972;2022-08-21T14:56:26;2.37;;;1.80;;
16133;SDS011;8172;45.018;5.972;2022-08-21T15:01:35;2.33;;;1.93;;
16133;SDS011;8172;45.018;5.972;2022-08-21T15:06:44;1.90;;;1.80;;
16133;SDS011;8172;45.018;5.972;2022-08-21T15:11:52;4.10;;;1.90;;
16133;SDS011;8172;45.018;5.972;2022-08-21T15:17:00;2.10;;;1.90;;
16133;SDS011;8172;45.018;5.972;2022-08-21T15:22:08;4.20;;;1.73;;
16133;SDS011;8172;45.018;5.972;2022-08-21T15:27:17;1.83;;;1.73;;
16133;SDS011;8172;45.018;5.972;2022-08-21T15:32:26;1.97;;;1.70;;
16133;SDS011;8172;45.018;5.972;2022-08-21T15:37:34;2.60;;;1.60;;
16133;SDS011;8172;45.018;5.972;2022-08-21T15:42:41;1.60;;;1.40;;
16133;SDS011;8172;45.018;5.972;2022-08-21T15:47:49;4.20;;;1.53;;
16133;SDS011;8172;45.018;5.972;2022-08-21T15:52:56;1.47;;;1.37;;
16133;SDS011;8172;45.018;5.972;2022-08-21T15:58:04;5.20;;;1.80;;
16133;SDS011;8172;45.018;5.972;2022-08-21T16:03:12;1.40;;;1.30;;
16133;SDS011;8172;45.018;5.972;2022-08-21T16:08:21;1.60;;;1.50;;
16133;SDS011;8172;45.018;5.972;2022-08-21T16:13:29;1.50;;;1.40;;
16133;SDS011;8172;45.018;5.972;2022-08-21T16:18:39;1.67;;;1.40;;
16133;SDS011;8172;45.018;5.972;2022-08-21T16:23:47;2.23;;;1.40;;
16133;SDS011;8172;45.018;5.972;2022-08-21T16:28:55;1.93;;;1.50;;
16133;SDS011;8172;45.018;5.972;2022-08-21T16:34:05;1.73;;;1.40;;
16133;SDS011;8172;45.018;5.972;2022-08-21T16:39:12;1.30;;;1.20;;
16133;SDS011;8172;45.018;5.972;2022-08-21T16:44:19;1.50;;;1.40;;
16133;SDS011;8172;45.018;5.972;2022-08-21T16:49:27;1.30;;;1.20;;
16133;SDS011;8172;45.018;5.972;2022-08-21T16:54:36;2.73;;;1.50;;
16133;SDS011;8172;45.018;5.972;2022-08-21T16:59:43;2.80;;;1.40;;
16133;SDS011;8172;45.018;5.972;2022-08-21T17:04:50;2.33;;;1.53;;
16133;SDS011;8172;45.018;5.972;2022-08-21T17:09:58;2.43;;;1.47;;
16133;SDS011;8172;45.018;5.972;2022-08-21T17:15:08;1.70;;;1.60;;
16133;SDS011;8172;45.018;5.972;2022-08-21T17:20:16;2.17;;;1.30;;
16133;SDS011;8172;45.018;5.972;2022-08-21T17:25:24;1.87;;;1.47;;
16133;SDS011;8172;45.018;5.972;2022-08-21T17:30:32;1.50;;;1.40;;
16133;SDS011;8172;45.018;5.972;2022-08-21T17:35:39;2.60;;;1.50;;
16133;SDS011;8172;45.018;5.972;2022-08-21T17:40:47;2.47;;;1.53;;
16133;SDS011;8172;45.018;5.972;2022-08-21T17:45:54;1.63;;;1.43;;
16133;SDS011;8172;45.018;5.972;2022-08-21T17:51:02;1.60;;;1.47;;
16133;SDS011;8172;45.018;5.972;2022-08-21T17:56:13;2.87;;;1.40;;
16133;SDS011;8172;45.018;5.972;2022-08-21T18:01:20;2.50;;;1.40;;
16133;SDS011;8172;45.018;5.972;2022-08-21T18:06:27;2.40;;;1.50;;
16133;SDS011;8172;45.018;5.972;2022-08-21T18:11:34;4.90;;;1.90;;
16133;SDS011;8172;45.018;5.972;2022-08-21T18:16:41;2.10;;;1.70;;
16133;SDS011;8172;45.018;5.972;2022-08-21T18:21:48;2.13;;;1.57;;
16133;SDS011;8172;45.018;5.972;2022-08-21T18:26:55;3.10;;;1.63;;
16133;SDS011;8172;45.018;5.972;2022-08-21T18:32:03;2.13;;;1.57;;
16133;SDS011;8172;45.018;5.972;2022-08-21T18:37:12;2.53;;;1.70;;
16133;SDS011;8172;45.018;5.972;2022-08-21T18:42:19;2.77;;;1.80;;
16133;SDS011;8172;45.018;5.972;2022-08-21T18:47:31;1.70;;;1.60;;
16133;SDS011;8172;45.018;5.972;2022-08-21T18:52:40;1.60;;;1.50;;
16133;SDS011;8172;45.018;5.972;2022-08-21T18:57:50;1.80;;;1.60;;
16133;SDS011;8172;45.018;5.972;2022-08-21T19:02:59;1.93;;;1.73;;
16133;SDS011;8172;45.018;5.972;2022-08-21T19:08:08;1.90;;;1.50;;
16133;SDS011;8172;45.018;5.972;2022-08-21T19:13:18;2.80;;;1.90;;
16133;SDS011;8172;45.018;5.972;2022-08-21T19:18:26;2.47;;;1.70;;
16133;SDS011;8172;45.018;5.972;2022-08-21T19:23:34;2.60;;;1.80;;
16133;SDS011;8172;45.018;5.972;2022-08-21T19:28:46;2.50;;;1.50;;
16133;SDS011;8172;45.018;5.972;2022-08-21T19:33:57;1.67;;;1.57;;
16133;SDS011;8172;45.018;5.972;2022-08-21T19:39:04;2.87;;;1.53;;
16133;SDS011;8172;45.018;5.972;2022-08-21T19:44:13;1.60;;;1.50;;
16133;SDS011;8172;45.018;5.972;2022-08-21T19:49:26;1.93;;;1.70;;
16133;SDS011;8172;45.018;5.972;2022-08-21T19:54:36;2.33;;;1.63;;
16133;SDS011;8172;45.018;5.972;2022-08-21T19:59:43;9.37;;;2.07;;
16133;SDS011;8172;45.018;5.972;2022-08-21T20:04:51;2.60;;;1.70;;
16133;SDS011;8172;45.018;5.972;2022-08-21T20:09:59;2.47;;;1.60;;
16133;SDS011;8172;45.018;5.972;2022-08-21T20:15:07;1.83;;;1.53;;
16133;SDS011;8172;45.018;5.972;2022-08-21T20:20:14;2.57;;;1.80;;
16133;SDS011;8172;45.018;5.972;2022-08-21T20:25:21;2.80;;;1.90;;
16133;SDS011;8172;45.018;5.972;2022-08-21T20:30:29;3.03;;;2.00;;
16133;SDS011;8172;45.018;5.972;2022-08-21T20:35:37;1.77;;;1.63;;
16133;SDS011;8172;45.018;5.972;2022-08-21T20:40:47;5.53;;;2.10;;
16133;SDS011;8172;45.018;5.972;2022-08-21T20:45:56;2.77;;;1.77;;
16133;SDS011;8172;45.018;5.972;2022-08-21T20:51:06;2.10;;;1.60;;
16133;SDS011;8172;45.018;5.972;2022-08-21T21:01:26;1.80;;;1.70;;
16133;SDS011;8172;45.018;5.972;2022-08-21T21:06:36;3.27;;;1.93;;
16133;SDS011;8172;45.018;5.972;2022-08-21T21:11:46;3.33;;;1.93;;
16133;SDS011;8172;45.018;5.972;2022-08-21T21:16:56;2.97;;;1.67;;
16133;SDS011;8172;45.018;5.972;2022-08-21T21:22:06;3.27;;;1.87;;
16133;SDS011;8172;45.018;5.972;2022-08-21T21:32:26;2.27;;;1.73;;
16133;SDS011;8172;45.018;5.972;2022-08-21T21:37:36;2.87;;;1.77;;
16133;SDS011;8172;45.018;5.972;2022-08-21T22:03:35;4.83;;;2.00;;
16133;SDS011;8172;45.018;5.972;2022-08-21T22:13:57;2.70;;;2.00;;
16133;SDS011;8172;45.018;5.972;2022-08-21T22:19:01;3.33;;;2.10;;
16133;SDS011;8172;45.018;5.972;2022-08-21T22:24:14;6.10;;;2.33;;
16133;SDS011;8172;45.018;5.972;2022-08-21T22:29:21;4.70;;;2.23;;
16133;SDS011;8172;45.018;5.972;2022-08-21T22:34:28;2.47;;;2.10;;
16133;SDS011;8172;45.018;5.972;2022-08-21T22:39:39;3.97;;;1.93;;
16133;SDS011;8172;45.018;5.972;2022-08-21T22:44:47;2.63;;;2.00;;
16133;SDS011;8172;45.018;5.972;2022-08-21T22:49:56;2.57;;;1.93;;
16133;SDS011;8172;45.018;5.972;2022-08-21T23:00:33;5.50;;;2.20;;
16133;SDS011;8172;45.018;5.972;2022-08-21T23:10:38;4.57;;;2.77;;
16133;SDS011;8172;45.018;5.972;2022-08-21T23:16:03;6.10;;;2.17;;
16133;SDS011;8172;45.018;5.972;2022-08-21T23:21:00;2.53;;;1.93;;
16133;SDS011;8172;45.018;5.972;2022-08-21T23:31:23;4.97;;;2.00;;
16133;SDS011;8172;45.018;5.972;2022-08-21T23:36:36;3.77;;;1.87;;
16133;SDS011;8172;45.018;5.972;2022-08-21T23:41:41;5.90;;;2.10;;
